Estación de Recoleta

Ultimos registro cada 15 minutos 87
Estación Fecha / Hora Temperatura Humedad Lluvia Velocidad Dirección Radiación Presion
87 Recoleta 06-05-2026 21:30 14,3 90,5 0 0 180 0,6 974,1
86 Recoleta 06-05-2026 21:15 14,4 89,9 0 0 149 0,6 973,9
85 Recoleta 06-05-2026 21:00 14,5 88,5 0 0 142 0,6 973,8
84 Recoleta 06-05-2026 20:45 14,7 87,2 0 0 142 0,6 973,8
83 Recoleta 06-05-2026 20:30 15 86,3 0 0 149 0,6 973,7
82 Recoleta 06-05-2026 20:15 15,3 84,5 0 0,3 174 0,6 973,6
81 Recoleta 06-05-2026 20:00 15,7 83,5 0 0,3 160 0,6 973,6
80 Recoleta 06-05-2026 19:45 15,9 82,7 0 1 166 0,6 973,7
79 Recoleta 06-05-2026 19:30 15,8 82,6 0 0,3 153 0,6 973,7
78 Recoleta 06-05-2026 19:15 15,9 81,5 0 0,3 154 0,6 973,5
77 Recoleta 06-05-2026 19:00 16,1 80,3 0 0,3 183 0,6 973,4
76 Recoleta 06-05-2026 18:45 16,3 79,7 0 0 211 0,6 973,3
75 Recoleta 06-05-2026 18:30 16,5 78,9 0 0,3 190 0,6 973,4
74 Recoleta 06-05-2026 18:15 16,9 77,2 0 0,7 185 9,4 973,3
73 Recoleta 06-05-2026 18:00 17,4 75,1 0 0,7 183 18,1 973,1
72 Recoleta 06-05-2026 17:45 17,7 73,9 0 1 222 24,4 972,9
71 Recoleta 06-05-2026 17:30 18,2 70,7 0 1,3 234 24,4 972,8
70 Recoleta 06-05-2026 17:15 18,7 68,6 0 1,3 226 48,1 972,5
69 Recoleta 06-05-2026 17:00 19,3 65,9 0 1,7 205 60,6 972,4
68 Recoleta 06-05-2026 16:45 20,4 61,7 0 1,7 211 135,6 972,2
67 Recoleta 06-05-2026 16:30 22,1 54,8 0 1,3 226 134,4 971,9
66 Recoleta 06-05-2026 16:15 22,9 51,8 0 1,3 218 29,4 971,8
65 Recoleta 06-05-2026 16:00 23 50,5 0 1 244 244,4 971,8
64 Recoleta 06-05-2026 15:45 23,9 46,2 0 1 247 285,6 971,7
63 Recoleta 06-05-2026 15:30 24,7 43,1 0 0,7 240 325,6 972
62 Recoleta 06-05-2026 15:15 24,5 43,1 0 1 219 368,1 971,9
61 Recoleta 06-05-2026 15:00 24,7 42,8 0 0,7 206 404,4 971,9
60 Recoleta 06-05-2026 14:45 24,7 43,5 0 1,3 204 441,9 971,9
59 Recoleta 06-05-2026 14:30 24,9 42,6 0 1,3 240 475,6 971,9
58 Recoleta 06-05-2026 14:15 25,1 41,3 0 1 226 505,6 972
57 Recoleta 06-05-2026 14:00 24,9 41,6 0 1 246 531,9 971,9
56 Recoleta 06-05-2026 13:45 25 41,9 0 1 175 556,9 972
55 Recoleta 06-05-2026 13:30 24 44,5 0 1,3 159 579,4 972,3
54 Recoleta 06-05-2026 13:15 22,9 47 0 1,7 138 596,9 972,1
53 Recoleta 06-05-2026 13:00 22,2 48,8 0 1,7 133 610,6 972,3
52 Recoleta 06-05-2026 12:45 21,9 50,6 0 1,3 136 620,6 972,5
51 Recoleta 06-05-2026 12:30 22,6 50,2 0 1 126 628,1 972,6
50 Recoleta 06-05-2026 12:15 21,8 53,1 0 0,7 143 630,6 972,8
49 Recoleta 06-05-2026 12:00 20,8 55,6 0 1 133 628,1 973,1
48 Recoleta 06-05-2026 11:45 20,2 59,1 0 1 138 618,1 973,2
47 Recoleta 06-05-2026 11:30 20 59,5 0 1 119 609,4 973,4
46 Recoleta 06-05-2026 11:15 19,4 62,6 0 0,7 110 591,9 973,7
45 Recoleta 06-05-2026 11:00 19,5 63,3 0 0,7 129 573,1 973,7
44 Recoleta 06-05-2026 10:45 18,5 65,8 0 0,7 105 30,6 973,8
43 Recoleta 06-05-2026 10:30 17,8 67,8 0 0,3 94 29,4 973,9
42 Recoleta 06-05-2026 10:15 17,3 69,6 0 0 67 30,6 973,7
41 Recoleta 06-05-2026 10:00 17,1 71,4 0 0 60 121,9 973,8
40 Recoleta 06-05-2026 09:45 15,4 76,4 0 0 31 45,6 973,6
39 Recoleta 06-05-2026 09:30 15 79 0 0 8 83,1 973,7
38 Recoleta 06-05-2026 09:15 12,3 92,3 0 0 29 385,6 973,8
37 Recoleta 06-05-2026 09:00 11,8 96,4 0 0 0 324,4 973,9
36 Recoleta 06-05-2026 08:45 11,3 97,6 0 0 344 246,9 973,9
35 Recoleta 06-05-2026 08:30 9,7 98,7 0 0 313 248,1 973,7
34 Recoleta 06-05-2026 08:15 7,4 98,2 0 0 310 60,6 973,6
33 Recoleta 06-05-2026 08:00 6,6 98,8 0 0 270 41,9 973,4
32 Recoleta 06-05-2026 07:45 6,1 98,1 0 0 265 19,4 973,4
31 Recoleta 06-05-2026 07:30 6,7 98,1 0 0 265 6,9 973
30 Recoleta 06-05-2026 07:15 6,7 98 0 0 264 1,9 972,9
29 Recoleta 06-05-2026 07:00 6,8 98,3 0 0 264 0,6 972,7
28 Recoleta 06-05-2026 06:45 6,1 98,1 0 0 264 0,6 972,5
27 Recoleta 06-05-2026 06:30 6,2 97,6 0 0 274 0,6 972,2
26 Recoleta 06-05-2026 06:15 5,9 98,2 0 0 340 0,6 971,8
25 Recoleta 06-05-2026 06:00 6,2 97,5 0 0 324 0,6 971,5
24 Recoleta 06-05-2026 05:45 6,4 97,8 0 0 314 0,6 971,4
23 Recoleta 06-05-2026 05:30 6 97,6 0 0 314 0,6 971,3
22 Recoleta 06-05-2026 05:15 6,3 97,6 0 0 314 0,6 971,4
21 Recoleta 06-05-2026 05:00 6,2 97,8 0 0 314 0,6 971,5
20 Recoleta 06-05-2026 04:45 6,1 97,2 0 0 314 0,6 971,3
19 Recoleta 06-05-2026 04:30 5,8 97,3 0 0 314 0,6 971,3
18 Recoleta 06-05-2026 04:15 6,1 97 0 0 314 0,6 971,2
17 Recoleta 06-05-2026 04:00 7 97 0 0 314 0,6 971,2
16 Recoleta 06-05-2026 03:45 7,2 96,9 0 0 314 0,6 971
15 Recoleta 06-05-2026 03:30 7,5 96,6 0 0 314 0,6 970,9
14 Recoleta 06-05-2026 03:15 7,1 97,2 0 0 314 0,6 971
13 Recoleta 06-05-2026 03:00 7 96,7 0 0 314 0,6 970,9
12 Recoleta 06-05-2026 02:45 7,2 96,9 0 0 314 0,6 970,9
11 Recoleta 06-05-2026 02:30 7,1 96,2 0 0 314 0,6 970,9
10 Recoleta 06-05-2026 02:15 7,8 96,1 0 0 312 0,6 971
9 Recoleta 06-05-2026 02:00 7,6 96 0 0 310 0,6 970,9
8 Recoleta 06-05-2026 01:45 7,7 95,8 0 0 310 0,6 970,7
7 Recoleta 06-05-2026 01:30 7,9 95,6 0 0 310 0,6 970,7
6 Recoleta 06-05-2026 01:15 8,2 95,2 0 0 310 0,6 970,7
5 Recoleta 06-05-2026 01:00 8,6 95,3 0 0 310 0,6 970,5
4 Recoleta 06-05-2026 00:45 8,7 94,8 0 0 310 0,6 970,8
3 Recoleta 06-05-2026 00:30 9,5 94,5 0 0 310 0,6 970,8
2 Recoleta 06-05-2026 00:15 10,2 95,6 0 0 258 0,6 970,6
1 Recoleta 06-05-2026 00:00 9,6 94,8 0 0 251 0,6 970,9